createdAt,value
2022-12-23T00:01:23.954Z,98941.75
2022-12-23T00:03:51.230Z,98926.19
2022-12-23T00:06:19.412Z,98933.78
2022-12-23T00:08:46.954Z,98932.25
2022-12-23T00:11:18.557Z,98924.28
2022-12-23T00:14:04.263Z,98913.22
2022-12-23T00:16:31.137Z,98896.94
2022-12-23T00:18:57.994Z,98874.69
2022-12-23T00:21:24.679Z,98891.03
2022-12-23T00:23:51.799Z,98886.78
2022-12-23T00:26:21.638Z,98880.84
2022-12-23T00:28:48.741Z,98873.00
2022-12-23T00:31:18.995Z,98870.34
2022-12-23T00:33:47.888Z,98872.84
2022-12-23T00:36:27.210Z,98871.13
2022-12-23T00:39:13.053Z,98860.72
2022-12-23T00:41:58.245Z,98852.97
2022-12-23T00:44:25.057Z,98837.59
2022-12-23T00:46:52.036Z,98844.19
2022-12-23T00:49:38.585Z,98823.84
2022-12-23T00:52:07.482Z,98834.97
2022-12-23T00:54:34.489Z,98821.44
2022-12-23T00:57:01.710Z,98821.53
2022-12-23T00:59:28.425Z,98824.38
2022-12-23T01:02:13.807Z,98806.47
2022-12-23T01:04:59.093Z,98838.88
2022-12-23T01:07:26.137Z,98830.38
2022-12-23T01:09:52.738Z,98824.34
2022-12-23T01:12:19.753Z,98832.22
2022-12-23T01:14:46.503Z,98839.88
2022-12-23T01:17:13.846Z,98841.47
2022-12-23T01:19:40.695Z,98838.09
2022-12-23T01:22:07.442Z,98859.56
2022-12-23T01:24:34.209Z,98845.66
2022-12-23T01:27:01.052Z,98845.59
2022-12-23T01:29:27.750Z,98844.59
2022-12-23T01:31:54.604Z,98849.63
2022-12-23T01:34:21.399Z,98828.53
2022-12-23T01:36:48.041Z,98842.84
2022-12-23T01:39:14.797Z,98827.47
2022-12-23T01:42:00.045Z,98835.25
2022-12-23T01:45:06.114Z,98834.91
2022-12-23T01:47:33.406Z,98829.94
2022-12-23T01:50:08.765Z,98835.31
2022-12-23T01:52:36.784Z,98837.16
2022-12-23T01:55:03.744Z,98837.28
2022-12-23T01:57:30.695Z,98820.91
2022-12-23T02:00:15.874Z,98839.78
2022-12-23T02:03:02.609Z,98838.69
2022-12-23T02:05:29.456Z,98839.00
2022-12-23T02:08:14.822Z,98839.19
2022-12-23T02:10:52.970Z,98834.09
2022-12-23T02:14:14.522Z,98840.81
2022-12-23T02:16:46.437Z,98838.38
2022-12-23T02:19:30.252Z,98840.78
2022-12-23T02:22:24.253Z,98839.09
2022-12-23T02:25:24.823Z,98845.19
2022-12-23T02:28:17.535Z,98839.03
2022-12-23T02:30:57.400Z,98832.97
2022-12-23T02:33:36.738Z,98835.66
2022-12-23T02:36:28.202Z,98831.47
2022-12-23T02:39:00.202Z,98835.47
2022-12-23T02:41:45.309Z,98829.38
2022-12-23T02:44:31.061Z,98826.53
2022-12-23T02:47:20.731Z,98824.41
2022-12-23T02:49:56.807Z,98829.59
2022-12-23T02:52:27.533Z,98836.91
2022-12-23T02:54:57.711Z,98832.53
2022-12-23T02:57:30.062Z,98828.38
2022-12-23T02:59:57.185Z,98839.31
2022-12-23T03:02:24.021Z,98824.91
2022-12-23T03:04:50.790Z,98850.72
2022-12-23T03:07:21.566Z,98842.94
2022-12-23T03:10:06.736Z,98850.75
2022-12-23T03:13:02.382Z,98861.09
2022-12-23T03:15:35.272Z,98860.91
2022-12-23T03:18:26.757Z,98858.19
2022-12-23T03:21:28.554Z,98848.81
2022-12-23T03:24:23.122Z,98846.09
2022-12-23T03:26:57.507Z,98846.97
2022-12-23T03:29:29.323Z,98826.69
2022-12-23T03:31:58.779Z,98851.34
2022-12-23T03:34:30.150Z,98840.41
2022-12-23T03:36:59.384Z,98849.53
2022-12-23T03:39:36.018Z,98852.06
2022-12-23T03:42:17.839Z,98853.16
2022-12-23T03:45:10.685Z,98857.47
2022-12-23T03:47:42.179Z,98852.31
2022-12-23T03:50:11.703Z,98853.22
2022-12-23T03:52:41.819Z,98863.59
2022-12-23T03:55:13.873Z,98857.50
2022-12-23T03:58:28.550Z,98853.38
2022-12-23T04:01:01.908Z,98849.88
2022-12-23T04:03:48.003Z,98838.84
2022-12-23T04:06:16.432Z,98853.34
2022-12-23T04:08:44.095Z,98841.50
2022-12-23T04:11:11.530Z,98838.97
2022-12-23T04:13:38.419Z,98839.00
2022-12-23T04:16:05.765Z,98836.31
2022-12-23T04:18:32.557Z,98846.50
2022-12-23T04:20:59.395Z,98842.22
2022-12-23T04:23:26.129Z,98862.84
2022-12-23T04:25:52.811Z,98854.47
2022-12-23T04:28:20.169Z,98858.59
2022-12-23T04:30:46.929Z,98855.47
2022-12-23T04:33:13.525Z,98867.34
2022-12-23T04:35:40.249Z,98867.44
2022-12-23T04:38:07.668Z,98882.91
2022-12-23T04:40:34.588Z,98884.72
2022-12-23T04:43:01.265Z,98895.16
2022-12-23T04:45:27.995Z,98897.75
2022-12-23T04:47:55.478Z,98912.28
2022-12-23T04:50:22.162Z,98906.25
2022-12-23T04:52:48.872Z,98902.94
2022-12-23T04:55:15.689Z,98913.16
2022-12-23T04:57:42.364Z,98912.34
2022-12-23T05:00:09.636Z,98899.66
2022-12-23T05:02:36.525Z,98902.03
2022-12-23T05:05:03.860Z,98890.00
2022-12-23T05:07:30.629Z,98901.13
2022-12-23T05:10:01.893Z,98884.03
2022-12-23T05:12:30.433Z,98879.75
2022-12-23T05:14:57.227Z,98886.81
2022-12-23T05:17:24.014Z,98862.09
2022-12-23T05:19:50.642Z,98876.84
2022-12-23T05:22:17.357Z,98885.25
2022-12-23T05:24:44.169Z,98873.31
2022-12-23T05:27:10.794Z,98879.31
2022-12-23T05:29:37.712Z,98862.31
2022-12-23T05:32:04.654Z,98868.13
2022-12-23T05:38:11.094Z,98861.09
2022-12-23T05:40:37.725Z,98863.41
2022-12-23T05:43:04.784Z,98870.91
2022-12-23T05:45:31.619Z,98864.97
2022-12-23T05:47:58.496Z,98855.66
2022-12-23T05:50:25.154Z,98844.63
2022-12-23T05:52:51.978Z,98883.16
2022-12-23T05:55:18.855Z,98884.84
2022-12-23T05:57:45.513Z,98894.31
2022-12-23T06:00:12.712Z,98897.06
2022-12-23T06:02:40.013Z,98902.97
2022-12-23T06:05:07.112Z,98897.81
2022-12-23T06:07:33.817Z,98900.47
2022-12-23T06:10:00.509Z,98884.88
2022-12-23T06:12:27.322Z,98892.59
2022-12-23T06:14:54.115Z,98903.63
2022-12-23T06:17:20.946Z,98888.09
2022-12-23T06:19:47.582Z,98887.47
2022-12-23T06:22:14.603Z,98908.81
2022-12-23T06:24:41.375Z,98932.78
2022-12-23T06:27:08.055Z,98933.66
2022-12-23T06:29:34.867Z,98923.31
2022-12-23T06:32:01.510Z,98913.91
2022-12-23T06:34:28.441Z,98902.84
2022-12-23T06:36:55.120Z,98930.22
2022-12-23T06:39:22.005Z,98912.38
2022-12-23T06:41:48.698Z,98920.06
2022-12-23T06:44:15.461Z,98901.34
2022-12-23T06:46:42.093Z,98935.56
2022-12-23T06:49:13.125Z,98931.31
2022-12-23T06:51:40.511Z,98920.25
2022-12-23T06:54:07.232Z,98915.06
2022-12-23T06:56:34.274Z,98919.22
2022-12-23T06:59:00.945Z,98916.59
2022-12-23T07:01:27.664Z,98897.03
2022-12-23T07:03:54.515Z,98908.00
2022-12-23T07:06:21.130Z,98902.06
2022-12-23T07:08:47.777Z,98882.19
2022-12-23T07:11:14.402Z,98910.19
2022-12-23T07:13:41.162Z,98916.13
2022-12-23T07:16:08.854Z,98913.34
2022-12-23T07:18:35.952Z,98920.19
2022-12-23T07:21:03.525Z,98910.91
2022-12-23T07:23:31.020Z,98927.13
2022-12-23T07:25:57.730Z,98904.72
2022-12-23T07:28:24.726Z,98915.81
2022-12-23T07:30:51.583Z,98913.97
2022-12-23T07:33:18.299Z,98885.59
2022-12-23T07:35:45.036Z,98900.84
2022-12-23T07:38:11.962Z,98891.25
2022-12-23T07:40:39.096Z,98860.53
2022-12-23T07:43:05.806Z,98874.03
2022-12-23T07:45:32.557Z,98878.22
2022-12-23T07:48:00.965Z,98872.13
2022-12-23T07:50:28.391Z,98869.63
2022-12-23T07:53:18.700Z,98862.69
2022-12-23T07:55:49.123Z,98874.47
2022-12-23T07:58:19.896Z,98866.84
2022-12-23T08:00:46.649Z,98870.44
2022-12-23T08:03:13.565Z,98856.88
2022-12-23T08:05:40.259Z,98850.97
2022-12-23T08:08:06.993Z,98869.69
2022-12-23T08:10:33.960Z,98848.41
2022-12-23T08:13:01.044Z,98842.31
2022-12-23T08:15:27.693Z,98826.09
2022-12-23T08:17:56.267Z,98851.41
2022-12-23T08:20:22.902Z,98835.13
2022-12-23T08:22:49.515Z,98844.16
2022-12-23T08:25:16.298Z,98831.22
2022-12-23T08:27:42.873Z,98824.34
2022-12-23T08:30:10.031Z,98816.69
2022-12-23T08:32:36.840Z,98814.69
2022-12-23T08:35:03.584Z,98803.13
2022-12-23T08:37:30.312Z,98776.78
2022-12-23T08:39:56.981Z,98785.41
2022-12-23T08:42:23.688Z,98775.19
2022-12-23T08:44:50.266Z,98768.53
2022-12-23T08:47:16.950Z,98783.75
2022-12-23T08:49:43.693Z,98779.28
2022-12-23T08:52:10.413Z,98765.34
2022-12-23T08:54:37.086Z,98788.84
2022-12-23T08:57:03.825Z,98786.53
2022-12-23T08:59:30.441Z,98798.13
2022-12-23T09:02:02.219Z,98782.06
2022-12-23T09:04:29.053Z,98780.72
2022-12-23T09:06:55.848Z,98794.13
2022-12-23T09:09:22.558Z,98783.88
2022-12-23T09:11:49.336Z,98783.25
2022-12-23T09:14:16.032Z,98802.72
2022-12-23T09:16:42.888Z,98802.00
2022-12-23T09:19:09.665Z,98799.50
2022-12-23T09:21:36.535Z,98789.31
2022-12-23T09:24:03.295Z,98799.59
2022-12-23T09:26:30.711Z,98802.84
2022-12-23T09:28:57.503Z,98800.22
2022-12-23T09:31:27.951Z,98785.03
2022-12-23T09:33:59.314Z,98783.34
2022-12-23T09:36:25.949Z,98777.44
2022-12-23T09:38:57.018Z,98778.22
2022-12-23T09:41:48.834Z,98774.28
2022-12-23T09:44:27.746Z,98771.75
2022-12-23T09:46:58.767Z,98762.38
2022-12-23T09:49:25.650Z,98750.91
2022-12-23T09:52:00.271Z,98746.41
2022-12-23T09:54:29.512Z,98757.56
2022-12-23T09:57:18.052Z,98767.19
2022-12-23T09:59:59.873Z,98769.16
2022-12-23T10:02:29.792Z,98765.53
2022-12-23T10:05:24.755Z,98774.38
2022-12-23T10:07:57.513Z,98771.66
2022-12-23T10:10:38.949Z,98776.25
2022-12-23T10:13:11.968Z,98760.97
2022-12-23T10:15:45.022Z,98777.72
2022-12-23T10:18:47.196Z,98778.91
2022-12-23T10:21:31.276Z,98761.50
2022-12-23T10:23:59.933Z,98755.38
2022-12-23T10:26:32.672Z,98752.81
2022-12-23T10:29:19.341Z,98758.38
2022-12-23T10:31:58.577Z,98763.22
2022-12-23T10:34:38.110Z,98748.56
2022-12-23T10:37:20.278Z,98738.13
2022-12-23T10:40:16.292Z,98739.38
2022-12-23T10:42:51.260Z,98733.41
2022-12-23T10:45:41.319Z,98742.41
2022-12-23T10:48:19.816Z,98741.72
2022-12-23T10:50:46.573Z,98741.06
2022-12-23T10:53:20.324Z,98731.00
2022-12-23T10:55:49.046Z,98747.38
2022-12-23T10:58:18.428Z,98724.13
2022-12-23T11:01:20.311Z,98733.91
2022-12-23T11:04:04.944Z,98730.13
2022-12-23T11:06:37.127Z,98730.22
2022-12-23T11:09:05.579Z,98732.81
2022-12-23T11:11:54.608Z,98738.78
2022-12-23T11:14:41.701Z,98733.44
2022-12-23T11:17:26.980Z,98730.34
2022-12-23T11:20:15.879Z,98732.66
2022-12-23T11:22:51.701Z,98721.88
2022-12-23T11:25:27.690Z,98726.41
2022-12-23T11:27:57.891Z,98722.84
2022-12-23T11:30:24.890Z,98724.84
2022-12-23T11:32:52.550Z,98732.94
2022-12-23T11:35:25.313Z,98736.13
2022-12-23T11:37:52.074Z,98732.59
2022-12-23T11:40:38.239Z,98727.09
2022-12-23T11:43:06.935Z,98722.47
2022-12-23T11:45:36.083Z,98727.56
2022-12-23T11:48:07.166Z,98730.44
2022-12-23T11:50:37.790Z,98731.34
2022-12-23T11:53:10.340Z,98742.84
2022-12-23T11:55:38.421Z,98739.59
2022-12-23T11:58:05.284Z,98739.88
2022-12-23T12:00:40.754Z,98743.19
2022-12-23T12:03:16.772Z,98742.78
2022-12-23T12:06:03.546Z,98740.25
2022-12-23T12:08:37.108Z,98737.56
2022-12-23T12:11:13.679Z,98748.25
2022-12-23T12:13:42.438Z,98763.66
2022-12-23T12:16:32.548Z,98766.97
2022-12-23T12:19:05.678Z,98776.56
2022-12-23T12:21:37.060Z,98796.06
2022-12-23T12:24:19.028Z,98785.25
2022-12-23T12:26:51.232Z,98792.19
2022-12-23T12:29:36.575Z,98793.66
2022-12-23T12:32:07.283Z,98777.94
2022-12-23T12:34:56.542Z,98790.72
2022-12-23T12:37:43.244Z,98793.56
2022-12-23T12:40:23.857Z,98800.19
2022-12-23T12:43:00.098Z,98808.53
2022-12-23T12:45:34.597Z,98796.75
2022-12-23T12:48:26.054Z,98804.47
2022-12-23T12:51:18.951Z,98799.53
2022-12-23T12:54:05.956Z,98807.31
2022-12-23T12:56:43.958Z,98791.13
2022-12-23T12:59:37.065Z,98804.03
2022-12-23T13:02:09.957Z,98795.38
2022-12-23T13:04:56.641Z,98793.97
2022-12-23T13:07:48.421Z,98797.22
2022-12-23T13:10:25.164Z,98787.94
2022-12-23T13:13:13.567Z,98800.97
2022-12-23T13:16:06.879Z,98797.78
2022-12-23T13:18:39.420Z,98790.81
2022-12-23T13:21:13.414Z,98797.88
2022-12-23T13:23:59.255Z,98789.63
2022-12-23T13:26:36.424Z,98803.00
2022-12-23T13:29:30.645Z,98806.69
2022-12-23T13:32:21.911Z,98798.28
2022-12-23T13:35:08.355Z,98796.84
2022-12-23T13:37:44.191Z,98793.19
2022-12-23T13:40:24.948Z,98784.72
2022-12-23T13:42:55.883Z,98773.97
2022-12-23T13:45:26.621Z,98793.19
2022-12-23T13:48:08.546Z,98787.47
2022-12-23T13:50:46.528Z,98796.31
2022-12-23T13:53:20.558Z,98806.91
2022-12-23T13:56:10.626Z,98808.63
2022-12-23T13:58:39.489Z,98813.13
2022-12-23T14:01:10.254Z,98810.53
2022-12-23T14:03:39.112Z,98821.94
2022-12-23T14:06:24.237Z,98825.34
2022-12-23T14:08:52.276Z,98822.13
2022-12-23T14:11:19.544Z,98819.56
2022-12-23T14:13:52.527Z,98824.00
2022-12-23T14:16:32.202Z,98825.66
2022-12-23T14:19:29.871Z,98830.03
2022-12-23T14:22:05.476Z,98824.91
2022-12-23T14:24:55.335Z,98834.41
2022-12-23T14:27:31.280Z,98831.94
2022-12-23T14:30:11.855Z,98831.28
2022-12-23T14:33:19.179Z,98830.69
2022-12-23T14:35:45.823Z,98843.53
2022-12-23T14:38:15.471Z,98837.53
2022-12-23T14:40:42.160Z,98837.50
2022-12-23T14:43:32.068Z,98852.44
2022-12-23T14:46:05.022Z,98848.19
2022-12-23T14:48:34.855Z,98857.69
2022-12-23T14:51:13.801Z,98862.78
2022-12-23T14:53:53.847Z,98867.22
2022-12-23T14:56:38.852Z,98875.63
2022-12-23T14:59:14.823Z,98886.19
2022-12-23T15:01:57.207Z,98874.44
2022-12-23T15:04:28.516Z,98894.97
2022-12-23T15:06:59.189Z,98891.56
2022-12-23T15:09:45.429Z,98908.69
2022-12-23T15:12:15.477Z,98904.41
2022-12-23T15:14:50.377Z,98905.31
2022-12-23T15:17:30.263Z,98916.47
2022-12-23T15:20:20.483Z,98921.66
2022-12-23T15:22:48.303Z,98924.22
2022-12-23T15:25:25.128Z,98931.13
2022-12-23T15:28:00.896Z,98928.50
2022-12-23T15:30:30.891Z,98935.25
2022-12-23T15:32:59.639Z,98944.59
2022-12-23T15:35:32.580Z,98934.22
2022-12-23T15:38:00.939Z,98939.25
2022-12-23T15:40:33.846Z,98934.09
2022-12-23T15:43:01.670Z,98933.13
2022-12-23T15:45:42.628Z,98930.44
2022-12-23T15:48:29.458Z,98914.03
2022-12-23T15:51:08.533Z,98919.81
2022-12-23T15:53:37.856Z,98929.13
2022-12-23T15:56:08.860Z,98915.25
2022-12-23T15:58:39.083Z,98915.88
2022-12-23T16:01:06.670Z,98925.19
2022-12-23T16:03:36.659Z,98902.81
2022-12-23T16:06:41.969Z,98913.06
2022-12-23T16:09:17.921Z,98910.53
2022-12-23T16:12:05.580Z,98900.31
2022-12-23T16:14:40.498Z,98905.44
2022-12-23T16:17:10.222Z,98893.28
2022-12-23T16:19:44.120Z,98900.81
2022-12-23T16:22:30.151Z,98896.56
2022-12-23T16:24:56.873Z,98894.84
2022-12-23T16:27:37.087Z,98882.81
2022-12-23T16:30:19.732Z,98875.03
2022-12-23T16:32:52.381Z,98868.03
2022-12-23T16:35:40.348Z,98866.13
2022-12-23T16:38:20.252Z,98867.03
2022-12-23T16:40:51.290Z,98869.41
2022-12-23T16:43:19.327Z,98869.59
2022-12-23T16:45:47.648Z,98861.72
2022-12-23T16:48:23.800Z,98860.06
2022-12-23T16:50:52.468Z,98854.84
2022-12-23T16:53:19.610Z,98855.75
2022-12-23T16:55:52.426Z,98853.31
2022-12-23T16:58:23.422Z,98862.34
2022-12-23T17:00:51.581Z,98865.75
2022-12-23T17:03:19.770Z,98834.25
2022-12-23T17:05:47.323Z,98850.25
2022-12-23T17:08:14.543Z,98854.66
2022-12-23T17:10:42.399Z,98842.66
2022-12-23T17:13:11.954Z,98851.19
2022-12-23T17:15:38.732Z,98858.09
2022-12-23T17:18:12.392Z,98843.44
2022-12-23T17:20:39.169Z,98845.22
2022-12-23T17:23:06.232Z,98844.28
2022-12-23T17:25:33.323Z,98845.03
2022-12-23T17:28:00.031Z,98850.94
2022-12-23T17:30:26.776Z,98834.03
2022-12-23T17:32:58.164Z,98852.00
2022-12-23T17:35:25.673Z,98847.63
2022-12-23T17:37:53.398Z,98841.75
2022-12-23T17:40:20.947Z,98827.34
2022-12-23T17:42:47.922Z,98826.63
2022-12-23T17:45:25.846Z,98838.53
2022-12-23T17:47:53.250Z,98849.69
2022-12-23T17:50:20.440Z,98860.16
2022-12-23T17:52:47.640Z,98856.97
2022-12-23T17:55:21.394Z,98861.63
2022-12-23T17:57:48.495Z,98861.88
2022-12-23T18:00:24.125Z,98862.88
2022-12-23T18:02:56.625Z,98840.88
2022-12-23T18:05:27.151Z,98871.44
2022-12-23T18:07:55.090Z,98879.09
2022-12-23T18:10:27.765Z,98874.56
2022-12-23T18:12:58.048Z,98853.56
2022-12-23T18:15:36.820Z,98868.09
2022-12-23T18:18:13.613Z,98878.22
2022-12-23T18:20:41.213Z,98891.13
2022-12-23T18:23:13.197Z,98890.44
2022-12-23T18:25:40.514Z,98887.75
2022-12-23T18:28:07.824Z,98888.38
2022-12-23T18:30:34.654Z,98894.31
2022-12-23T18:33:01.364Z,98894.47
2022-12-23T18:35:38.465Z,98898.81
2022-12-23T18:38:05.315Z,98894.53
2022-12-23T18:40:33.232Z,98885.94
2022-12-23T18:43:00.130Z,98901.25
2022-12-23T18:45:31.976Z,98907.06
2022-12-23T18:47:59.286Z,98904.59
2022-12-23T18:50:27.012Z,98911.28
2022-12-23T18:52:54.272Z,98890.91
2022-12-23T18:55:21.478Z,98915.59
2022-12-23T18:57:49.429Z,98893.50
2022-12-23T19:00:22.128Z,98916.47
2022-12-23T19:02:50.197Z,98893.47
2022-12-23T19:05:29.076Z,98906.13
2022-12-23T19:07:57.524Z,98882.13
2022-12-23T19:10:24.153Z,98900.69
2022-12-23T19:12:51.498Z,98903.28
2022-12-23T19:15:19.030Z,98892.06
2022-12-23T19:17:46.528Z,98884.50
2022-12-23T19:20:15.664Z,98871.84
2022-12-23T19:22:42.457Z,98889.75
2022-12-23T19:25:11.677Z,98887.16
2022-12-23T19:27:44.648Z,98896.41
2022-12-23T19:30:14.294Z,98894.41
2022-12-23T19:32:41.075Z,98894.50
2022-12-23T19:35:08.454Z,98893.56
2022-12-23T19:37:36.480Z,98890.00
2022-12-23T19:40:03.491Z,98880.72
2022-12-23T19:42:30.726Z,98866.28
2022-12-23T19:44:57.591Z,98875.56
2022-12-23T19:47:24.261Z,98876.81
2022-12-23T19:49:50.972Z,98866.75
2022-12-23T19:52:17.775Z,98870.25
2022-12-23T19:54:44.489Z,98881.19
2022-12-23T19:57:11.216Z,98869.47
2022-12-23T19:59:38.062Z,98881.47
2022-12-23T20:02:04.730Z,98860.16
2022-12-23T20:04:32.171Z,98883.22
2022-12-23T20:06:58.910Z,98885.78
2022-12-23T20:09:25.697Z,98882.38
2022-12-23T20:11:52.357Z,98874.69
2022-12-23T20:14:19.541Z,98878.94
2022-12-23T20:16:48.341Z,98870.38
2022-12-23T20:19:15.663Z,98871.19
2022-12-23T20:21:42.376Z,98869.25
2022-12-23T20:24:09.805Z,98865.91
2022-12-23T20:26:36.664Z,98855.59
2022-12-23T20:29:03.420Z,98853.72
2022-12-23T20:31:32.575Z,98854.63
2022-12-23T20:34:00.873Z,98844.25
2022-12-23T20:36:30.727Z,98855.16
2022-12-23T20:38:58.217Z,98841.59
2022-12-23T20:41:27.694Z,98852.66
2022-12-23T20:44:31.829Z,98851.91
2022-12-23T20:46:41.487Z,98847.66
2022-12-23T20:49:08.283Z,98856.22
2022-12-23T20:51:35.240Z,98849.47
2022-12-23T20:54:01.992Z,98841.69
2022-12-23T20:56:30.454Z,98835.66
2022-12-23T20:58:59.532Z,98822.09
2022-12-23T21:01:27.729Z,98832.09
2022-12-23T21:03:55.203Z,98823.31
2022-12-23T21:06:22.095Z,98808.69
2022-12-23T21:08:48.793Z,98799.31
2022-12-23T21:11:15.963Z,98807.91
2022-12-23T21:13:43.994Z,98813.16
2022-12-23T21:16:12.296Z,98806.69
2022-12-23T21:18:44.619Z,98804.97
2022-12-23T21:21:12.382Z,98811.28
2022-12-23T21:23:42.492Z,98798.59
2022-12-23T21:26:17.233Z,98798.00
2022-12-23T21:28:46.428Z,98809.88
2022-12-23T21:31:17.630Z,98801.75
2022-12-23T21:33:45.501Z,98824.81
2022-12-23T21:36:19.841Z,98825.72
2022-12-23T21:38:47.296Z,98810.50
2022-12-23T21:41:19.505Z,98826.75
2022-12-23T21:43:46.351Z,98808.06
2022-12-23T21:46:15.385Z,98816.59
2022-12-23T21:48:42.700Z,98820.25
2022-12-23T21:51:24.365Z,98830.41
2022-12-23T21:53:52.769Z,98836.13
2022-12-23T21:56:28.498Z,98845.50
2022-12-23T21:59:00.290Z,98814.91
2022-12-23T22:01:28.091Z,98819.84
2022-12-23T22:03:55.883Z,98793.53
2022-12-23T22:06:28.414Z,98832.72
2022-12-23T22:08:55.571Z,98826.81
2022-12-23T22:11:26.135Z,98837.91
2022-12-23T22:13:53.302Z,98831.16
2022-12-23T22:16:22.158Z,98838.72
2022-12-23T22:18:49.436Z,98843.00
2022-12-23T22:21:19.205Z,98834.47
2022-12-23T22:23:46.900Z,98825.97
2022-12-23T22:26:20.251Z,98842.97
2022-12-23T22:28:50.854Z,98832.56
2022-12-23T22:31:18.456Z,98839.41
2022-12-23T22:33:45.474Z,98827.31
2022-12-23T22:36:15.714Z,98831.25
2022-12-23T22:38:43.616Z,98823.63
2022-12-23T22:41:10.889Z,98833.03
2022-12-23T22:43:37.755Z,98844.94
2022-12-23T22:46:04.876Z,98840.06
2022-12-23T22:48:31.815Z,98839.22
2022-12-23T22:51:07.613Z,98829.81
2022-12-23T22:53:34.243Z,98810.16
2022-12-23T22:56:01.984Z,98838.44
2022-12-23T22:58:30.144Z,98840.22
2022-12-23T23:00:58.305Z,98810.38
2022-12-23T23:03:26.412Z,98838.44
2022-12-23T23:06:00.998Z,98835.00
2022-12-23T23:08:28.615Z,98824.81
2022-12-23T23:10:59.857Z,98838.47
2022-12-23T23:13:29.410Z,98826.53
2022-12-23T23:15:56.393Z,98840.91
2022-12-23T23:18:23.776Z,98823.19
2022-12-23T23:20:50.645Z,98814.75
2022-12-23T23:23:17.826Z,98829.19
2022-12-23T23:25:45.427Z,98847.88
2022-12-23T23:28:14.069Z,98850.56
2022-12-23T23:30:41.102Z,98847.16
2022-12-23T23:33:08.659Z,98854.09
2022-12-23T23:35:35.928Z,98853.22
2022-12-23T23:38:02.629Z,98860.88
2022-12-23T23:40:29.954Z,98864.16
2022-12-23T23:42:56.629Z,98854.75
2022-12-23T23:45:23.512Z,98859.97
2022-12-23T23:47:50.465Z,98849.53
2022-12-23T23:50:17.119Z,98846.84
2022-12-23T23:52:43.814Z,98813.66
2022-12-23T23:55:10.542Z,98839.16
2022-12-23T23:57:37.501Z,98840.03
